メインページ
METAR-TAF:

METAR-TAF

空港 :

重慶, 中華人民共和国

重慶江北国際空港

緯度: 29-31N, 経度: 106-29E, 海抜: 351m

現時点の気象観測

当レポートは22分前の06:00(UTC)に作成
の風 4kt、北東から南東の間で変化する
気温 10°C
湿度 66%
気圧 1021 hPa
視程10km以上
高度4600ftの雲はほとんどない

METAR: ZUCK 140600Z 08002MPS 040V130 9999 FEW046 10/04 Q1021 NOSIG

時間: 14:22 (06:22 UTC)

予報

当レポートは3時間13分前の03:09(UTC)に作成
予報は14日の 06時(UTC)から 15日の 06時(UTC)まで有効
北/北東の風 6kt
視程: 5000m
高度4000ftの雲は散在している

TAF: ZUCK 140309Z 1406/1506 03003MPS 5000 BR SCT040 TX10/1407Z TN07/1421Z

4,000以上の空港の気象観測と天気予報(METAR報とTAF報)

利用可能な観測所は地図上に黄色い丸と赤い丸で示す。

丸の上にカーソルを重ねると観測所名を参照できる。

次にクリックすると気象観測と天気予報を参照できる。

マップの切り替え:黒色「×」印の緑ボタンをクリックして拡大、「-」印の緑ボタンをクリックして縮小、緑色の三角印をクリックして隣りの地図に切り替え


METAR-TAF: